createdAt,value
2023-09-02T00:00:11.090Z,16.74
2023-09-02T00:01:11.158Z,16.74
2023-09-02T00:02:11.086Z,16.74
2023-09-02T00:03:11.103Z,16.74
2023-09-02T00:04:11.097Z,16.73
2023-09-02T00:05:11.028Z,16.73
2023-09-02T00:06:11.042Z,16.72
2023-09-02T00:07:11.011Z,16.73
2023-09-02T00:08:11.007Z,16.73
2023-09-02T00:09:10.974Z,16.74
2023-09-02T00:10:10.954Z,16.75
2023-09-02T00:11:10.953Z,16.76
2023-09-02T00:12:10.948Z,16.77
2023-09-02T00:13:10.924Z,16.77
2023-09-02T00:14:10.925Z,16.78
2023-09-02T00:15:10.907Z,16.79
2023-09-02T00:16:10.914Z,16.79
2023-09-02T00:17:10.880Z,16.79
2023-09-02T00:18:10.860Z,16.78
2023-09-02T00:19:10.862Z,16.77
2023-09-02T00:20:10.834Z,16.76
2023-09-02T00:21:10.838Z,16.76
2023-09-02T00:22:10.804Z,16.77
2023-09-02T00:23:10.792Z,16.79
2023-09-02T00:24:10.780Z,16.80
2023-09-02T00:25:10.774Z,16.82
2023-09-02T00:26:10.750Z,16.83
2023-09-02T00:27:10.748Z,16.85
2023-09-02T00:28:10.731Z,16.87
2023-09-02T00:29:10.714Z,16.88
2023-09-02T00:30:10.700Z,16.90
2023-09-02T00:31:10.725Z,16.91
2023-09-02T00:32:10.679Z,16.92
2023-09-02T00:33:10.689Z,16.94
2023-09-02T00:34:10.655Z,16.95
2023-09-02T00:35:10.635Z,16.96
2023-09-02T00:36:10.624Z,16.96
2023-09-02T00:37:10.612Z,16.97
2023-09-02T00:38:10.597Z,16.97
2023-09-02T00:39:10.594Z,16.97
2023-09-02T00:40:10.589Z,16.98
2023-09-02T00:41:10.562Z,16.98
2023-09-02T00:42:10.575Z,16.98
2023-09-02T00:43:10.532Z,16.98
2023-09-02T00:44:10.522Z,16.98
2023-09-02T00:45:10.575Z,16.98
2023-09-02T00:46:10.534Z,16.99
2023-09-02T00:47:10.473Z,17.00
2023-09-02T00:48:10.512Z,17.00
2023-09-02T00:49:10.456Z,17.00
2023-09-02T00:50:10.437Z,17.00
2023-09-02T00:51:10.447Z,17.00
2023-09-02T00:52:10.436Z,17.00
2023-09-02T00:53:10.415Z,16.99
2023-09-02T00:54:10.391Z,16.99
2023-09-02T00:55:10.381Z,16.98
2023-09-02T00:56:10.368Z,16.98
2023-09-02T00:57:10.355Z,16.98
2023-09-02T00:58:10.360Z,16.98
2023-09-02T00:59:10.329Z,16.98
2023-09-02T01:00:10.331Z,16.97
2023-09-02T01:01:10.331Z,16.97
2023-09-02T01:02:10.333Z,16.97
2023-09-02T01:03:10.343Z,16.97
2023-09-02T01:04:10.268Z,16.97
2023-09-02T01:05:10.252Z,16.96
2023-09-02T01:06:10.246Z,16.96
2023-09-02T01:07:10.229Z,16.95
2023-09-02T01:08:10.227Z,16.95
2023-09-02T01:09:10.207Z,16.94
2023-09-02T01:10:10.192Z,16.94
2023-09-02T01:11:10.182Z,16.93
2023-09-02T01:12:10.156Z,16.93
2023-09-02T01:13:10.156Z,16.91
2023-09-02T01:14:10.155Z,16.90
2023-09-02T01:15:10.112Z,16.89
2023-09-02T01:16:10.111Z,16.88
2023-09-02T01:17:10.161Z,16.87
2023-09-02T01:18:10.142Z,16.86
2023-09-02T01:19:10.074Z,16.86
2023-09-02T01:20:10.060Z,16.85
2023-09-02T01:21:10.046Z,16.85
2023-09-02T01:22:10.045Z,16.84
2023-09-02T01:23:10.010Z,16.83
2023-09-02T01:24:10.011Z,16.82
2023-09-02T01:25:10.008Z,16.81
2023-09-02T01:26:09.986Z,16.79
2023-09-02T01:27:09.956Z,16.77
2023-09-02T01:28:09.938Z,16.75
2023-09-02T01:29:09.942Z,16.73
2023-09-02T01:30:09.935Z,16.72
2023-09-02T01:31:09.968Z,16.71
2023-09-02T01:32:09.909Z,16.70
2023-09-02T01:33:09.937Z,16.69
2023-09-02T01:34:09.884Z,16.69
2023-09-02T01:35:09.863Z,16.68
2023-09-02T01:36:09.845Z,16.68
2023-09-02T01:37:09.841Z,16.68
2023-09-02T01:38:09.820Z,16.68
2023-09-02T01:39:09.820Z,16.67
2023-09-02T01:40:09.862Z,16.67
2023-09-02T01:41:09.782Z,16.65
2023-09-02T01:42:09.787Z,16.65
2023-09-02T01:43:09.755Z,16.66
2023-09-02T01:44:09.739Z,16.66
2023-09-02T01:45:09.724Z,16.66
2023-09-02T01:46:09.805Z,16.67
2023-09-02T01:47:09.696Z,16.67
2023-09-02T01:48:09.762Z,16.67
2023-09-02T01:49:09.698Z,16.67
2023-09-02T01:50:09.659Z,16.68
2023-09-02T01:51:09.643Z,16.68
2023-09-02T01:52:09.631Z,16.67
2023-09-02T01:53:09.638Z,16.67
2023-09-02T01:54:09.630Z,16.66
2023-09-02T01:55:09.608Z,16.63
2023-09-02T01:56:09.589Z,16.60
2023-09-02T01:57:09.587Z,16.57
2023-09-02T01:58:09.558Z,16.53
2023-09-02T01:59:09.550Z,16.50
2023-09-02T02:00:09.555Z,16.47
2023-09-02T02:01:09.559Z,16.44
2023-09-02T02:02:09.538Z,16.41
2023-09-02T02:03:09.588Z,16.40
2023-09-02T02:04:09.511Z,16.40
2023-09-02T02:05:09.491Z,16.40
2023-09-02T02:06:09.518Z,16.39
2023-09-02T02:07:09.453Z,16.39
2023-09-02T02:08:09.438Z,16.38
2023-09-02T02:09:09.420Z,16.38
2023-09-02T02:10:09.450Z,16.37
2023-09-02T02:11:09.389Z,16.37
2023-09-02T02:12:09.385Z,16.37
2023-09-02T02:13:09.384Z,16.37
2023-09-02T02:14:09.390Z,16.37
2023-09-02T02:15:09.349Z,16.37
2023-09-02T02:16:09.372Z,16.37
2023-09-02T02:17:09.342Z,16.37
2023-09-02T02:18:09.328Z,16.37
2023-09-02T02:19:09.300Z,16.35
2023-09-02T02:20:09.289Z,16.33
2023-09-02T02:21:09.278Z,16.31
2023-09-02T02:22:09.270Z,16.28
2023-09-02T02:23:09.250Z,16.26
2023-09-02T02:24:09.236Z,16.24
2023-09-02T02:25:09.237Z,16.22
2023-09-02T02:26:09.212Z,16.20
2023-09-02T02:27:09.190Z,16.17
2023-09-02T02:28:09.174Z,16.15
2023-09-02T02:29:09.161Z,16.12
2023-09-02T02:30:09.145Z,16.10
2023-09-02T02:31:09.153Z,16.09
2023-09-02T02:32:09.131Z,16.09
2023-09-02T02:33:09.162Z,16.09
2023-09-02T02:34:09.092Z,16.09
2023-09-02T02:35:09.085Z,16.09
2023-09-02T02:36:09.069Z,16.10
2023-09-02T02:37:09.076Z,16.11
2023-09-02T02:38:09.051Z,16.11
2023-09-02T02:39:09.054Z,16.12
2023-09-02T02:40:09.034Z,16.12
2023-09-02T02:41:09.013Z,16.12
2023-09-02T02:42:09.011Z,16.11
2023-09-02T02:43:08.972Z,16.11
2023-09-02T02:44:08.967Z,16.12
2023-09-02T02:45:08.979Z,16.13
2023-09-02T02:46:09.009Z,16.14
2023-09-02T02:47:08.930Z,16.15
2023-09-02T02:48:09.032Z,16.16
2023-09-02T02:49:08.895Z,16.17
2023-09-02T02:50:08.924Z,16.18
2023-09-02T02:51:08.895Z,16.21
2023-09-02T02:52:08.865Z,16.23
2023-09-02T02:53:08.845Z,16.24
2023-09-02T02:54:08.843Z,16.23
2023-09-02T02:55:08.821Z,16.22
2023-09-02T02:56:08.829Z,16.22
2023-09-02T02:57:08.804Z,16.23
2023-09-02T02:58:08.792Z,16.24
2023-09-02T02:59:08.770Z,16.24
2023-09-02T03:00:08.806Z,16.24
2023-09-02T03:01:08.767Z,16.24
2023-09-02T03:02:08.782Z,16.23
2023-09-02T03:03:08.793Z,16.22
2023-09-02T03:04:08.724Z,16.23
2023-09-02T03:05:08.692Z,16.23
2023-09-02T03:06:08.708Z,16.23
2023-09-02T03:07:08.664Z,16.23
2023-09-02T03:08:08.686Z,16.25
2023-09-02T03:09:08.642Z,16.26
2023-09-02T03:10:08.634Z,16.26
2023-09-02T03:11:08.622Z,16.27
2023-09-02T03:12:08.604Z,16.28
2023-09-02T03:13:08.592Z,16.29
2023-09-02T03:14:08.582Z,16.29
2023-09-02T03:15:08.592Z,16.29
2023-09-02T03:16:08.592Z,16.28
2023-09-02T03:17:08.549Z,16.27
2023-09-02T03:18:08.574Z,16.27
2023-09-02T03:19:08.514Z,16.27
2023-09-02T03:20:08.516Z,16.27
2023-09-02T03:21:08.524Z,16.26
2023-09-02T03:22:08.480Z,16.25
2023-09-02T03:23:08.449Z,16.26
2023-09-02T03:24:08.478Z,16.27
2023-09-02T03:25:08.426Z,16.26
2023-09-02T03:26:08.441Z,16.25
2023-09-02T03:27:08.427Z,16.25
2023-09-02T03:28:08.394Z,16.24
2023-09-02T03:29:08.377Z,16.23
2023-09-02T03:30:08.379Z,16.22
2023-09-02T03:31:08.414Z,16.21
2023-09-02T03:32:08.343Z,16.20
2023-09-02T03:33:08.359Z,16.20
2023-09-02T03:34:08.321Z,16.19
2023-09-02T03:35:08.295Z,16.18
2023-09-02T03:36:08.300Z,16.16
2023-09-02T03:37:08.280Z,16.16
2023-09-02T03:38:08.297Z,16.16
2023-09-02T03:39:08.272Z,16.15
2023-09-02T03:40:08.239Z,16.15
2023-09-02T03:41:08.218Z,16.14
2023-09-02T03:42:08.207Z,16.13
2023-09-02T03:43:08.204Z,16.14
2023-09-02T03:44:08.183Z,16.16
2023-09-02T03:45:08.165Z,16.17
2023-09-02T03:46:08.198Z,16.18
2023-09-02T03:47:08.210Z,16.19
2023-09-02T03:48:08.260Z,16.20
2023-09-02T03:49:08.119Z,16.21
2023-09-02T03:50:08.113Z,16.21
2023-09-02T03:51:08.095Z,16.21
2023-09-02T03:52:08.086Z,16.21
2023-09-02T03:53:08.100Z,16.21
2023-09-02T03:54:08.072Z,16.20
2023-09-02T03:55:08.061Z,16.19
2023-09-02T03:56:08.030Z,16.18
2023-09-02T03:57:08.006Z,16.16
2023-09-02T03:58:08.011Z,16.16
2023-09-02T03:59:07.988Z,16.15
2023-09-02T04:00:07.984Z,16.15
2023-09-02T04:01:08.045Z,16.14
2023-09-02T04:02:07.957Z,16.12
2023-09-02T04:03:08.071Z,16.11
2023-09-02T04:04:07.980Z,16.09
2023-09-02T04:05:07.910Z,16.07
2023-09-02T04:06:07.899Z,16.05
2023-09-02T04:07:07.872Z,16.03
2023-09-02T04:08:07.868Z,16.02
2023-09-02T04:09:07.857Z,16.01
2023-09-02T04:10:07.849Z,15.99
2023-09-02T04:11:07.834Z,15.98
2023-09-02T04:12:07.823Z,15.97
2023-09-02T04:13:07.825Z,15.95
2023-09-02T04:14:07.797Z,15.94
2023-09-02T04:15:07.826Z,15.93
2023-09-02T04:16:07.777Z,15.92
2023-09-02T04:17:07.753Z,15.92
2023-09-02T04:18:07.768Z,15.92
2023-09-02T04:19:07.786Z,15.94
2023-09-02T04:20:07.741Z,15.95
2023-09-02T04:21:07.690Z,15.96
2023-09-02T04:22:07.676Z,15.97
2023-09-02T04:23:07.674Z,15.98
2023-09-02T04:24:07.664Z,15.99
2023-09-02T04:25:07.647Z,15.99
2023-09-02T04:26:07.654Z,16.00
2023-09-02T04:27:07.683Z,16.00
2023-09-02T04:28:07.638Z,16.00
2023-09-02T04:29:07.704Z,16.01
2023-09-02T04:30:07.653Z,16.01
2023-09-02T04:31:07.579Z,16.02
2023-09-02T04:32:07.645Z,16.03
2023-09-02T04:33:07.751Z,16.04
2023-09-02T04:34:07.551Z,16.04
2023-09-02T04:35:07.554Z,16.05
2023-09-02T04:36:07.512Z,16.06
2023-09-02T04:37:07.535Z,16.06
2023-09-02T04:38:07.487Z,16.06
2023-09-02T04:39:07.519Z,16.06
2023-09-02T04:40:07.467Z,16.06
2023-09-02T04:41:07.468Z,16.06
2023-09-02T04:42:07.439Z,16.05
2023-09-02T04:43:07.411Z,16.03
2023-09-02T04:44:07.408Z,16.01
2023-09-02T04:45:07.381Z,15.99
2023-09-02T04:46:07.387Z,15.96
2023-09-02T04:47:07.369Z,15.94
2023-09-02T04:48:07.400Z,15.91
2023-09-02T04:49:07.349Z,15.88
2023-09-02T04:50:07.334Z,15.86
2023-09-02T04:51:07.321Z,15.82
2023-09-02T04:52:07.329Z,15.77
2023-09-02T04:53:07.295Z,15.72
2023-09-02T04:54:07.287Z,15.65
2023-09-02T04:55:07.274Z,15.58
2023-09-02T04:56:07.242Z,15.50
2023-09-02T04:57:07.235Z,15.43
2023-09-02T04:58:07.226Z,15.36
2023-09-02T04:59:07.203Z,15.32
2023-09-02T05:00:07.200Z,15.28
2023-09-02T05:01:07.175Z,15.27
2023-09-02T05:02:07.227Z,15.26
2023-09-02T05:03:07.218Z,15.26
2023-09-02T05:04:07.158Z,15.26
2023-09-02T05:05:07.146Z,15.27
2023-09-02T05:06:07.220Z,15.29
2023-09-02T05:07:07.118Z,15.31
2023-09-02T05:08:07.113Z,15.33
2023-09-02T05:09:07.087Z,15.36
2023-09-02T05:10:07.092Z,15.37
2023-09-02T05:11:07.049Z,15.39
2023-09-02T05:12:07.068Z,15.41
2023-09-02T05:13:07.119Z,15.43
2023-09-02T05:14:07.028Z,15.45
2023-09-02T05:15:07.026Z,15.48
2023-09-02T05:16:07.056Z,15.50
2023-09-02T05:17:06.966Z,15.52
2023-09-02T05:18:07.035Z,15.54
2023-09-02T05:19:06.954Z,15.56
2023-09-02T05:20:07.128Z,15.57
2023-09-02T05:21:06.916Z,15.58
2023-09-02T05:22:06.930Z,15.57
2023-09-02T05:23:06.898Z,15.55
2023-09-02T05:24:06.901Z,15.52
2023-09-02T05:25:06.917Z,15.49
2023-09-02T05:26:06.899Z,15.47
2023-09-02T05:27:06.881Z,15.45
2023-09-02T05:28:07.071Z,15.44
2023-09-02T05:29:06.825Z,15.44
2023-09-02T05:30:07.273Z,15.45
2023-09-02T05:31:06.821Z,15.46
2023-09-02T05:32:06.773Z,15.47
2023-09-02T05:33:06.840Z,15.48
2023-09-02T05:34:06.773Z,15.50
2023-09-02T05:35:06.789Z,15.52
2023-09-02T05:36:06.738Z,15.54
2023-09-02T05:37:06.723Z,15.57
2023-09-02T05:38:06.730Z,15.59
2023-09-02T05:39:06.735Z,15.60
2023-09-02T05:40:06.715Z,15.61
2023-09-02T05:41:06.679Z,15.62
2023-09-02T05:42:06.706Z,15.62
2023-09-02T05:43:06.632Z,15.64
2023-09-02T05:44:06.622Z,15.65
2023-09-02T05:45:06.638Z,15.66
2023-09-02T05:46:06.640Z,15.68
2023-09-02T05:47:06.576Z,15.69
2023-09-02T05:48:06.629Z,15.71
2023-09-02T05:49:06.552Z,15.73
2023-09-02T05:50:06.552Z,15.76
2023-09-02T05:51:06.601Z,15.78
2023-09-02T05:52:06.547Z,15.80
2023-09-02T05:53:06.561Z,15.82
2023-09-02T05:54:06.513Z,15.84
2023-09-02T05:55:06.506Z,15.86
2023-09-02T05:56:06.502Z,15.88
2023-09-02T05:57:06.456Z,15.90
2023-09-02T05:58:06.456Z,15.91
2023-09-02T05:59:06.458Z,15.92
2023-09-02T06:00:06.438Z,15.92
2023-09-02T06:01:06.447Z,15.93
2023-09-02T06:02:06.402Z,15.94
2023-09-02T06:03:06.503Z,15.96
2023-09-02T06:04:06.410Z,15.98
2023-09-02T06:05:06.364Z,15.99
2023-09-02T06:06:06.372Z,16.01
2023-09-02T06:07:06.366Z,16.03
2023-09-02T06:08:06.310Z,16.04
2023-09-02T06:09:06.323Z,16.06
2023-09-02T06:10:06.309Z,16.08
2023-09-02T06:11:06.285Z,16.10
2023-09-02T06:12:06.275Z,16.13
2023-09-02T06:13:06.264Z,16.15
2023-09-02T06:14:06.232Z,16.17
2023-09-02T06:15:06.246Z,16.19
2023-09-02T06:16:06.220Z,16.21
2023-09-02T06:17:06.194Z,16.23
2023-09-02T06:18:07.214Z,16.25
2023-09-02T06:19:06.171Z,16.26
2023-09-02T06:20:06.190Z,16.26
2023-09-02T06:21:06.131Z,16.26
2023-09-02T06:22:06.130Z,16.26
2023-09-02T06:23:06.105Z,16.26
2023-09-02T06:24:06.115Z,16.26
2023-09-02T06:25:06.098Z,16.26
2023-09-02T06:26:07.312Z,16.26
2023-09-02T06:27:06.083Z,16.27
2023-09-02T06:28:06.066Z,16.28
2023-09-02T06:29:06.078Z,16.29
2023-09-02T06:30:06.043Z,16.30
2023-09-02T06:31:06.036Z,16.31
2023-09-02T06:32:05.995Z,16.32
2023-09-02T06:33:06.040Z,16.34
2023-09-02T06:34:06.660Z,16.35
2023-09-02T06:35:05.956Z,16.36
2023-09-02T06:36:05.942Z,16.37
2023-09-02T06:37:05.986Z,16.39
2023-09-02T06:38:05.945Z,16.41
2023-09-02T06:39:05.934Z,16.42
2023-09-02T06:40:05.896Z,16.43
2023-09-02T06:41:05.904Z,16.44
2023-09-02T06:42:05.871Z,16.45
2023-09-02T06:43:05.848Z,16.45
2023-09-02T06:44:05.847Z,16.45
2023-09-02T06:45:05.839Z,16.46
2023-09-02T06:46:05.810Z,16.46
2023-09-02T06:47:05.878Z,16.47
2023-09-02T06:48:05.922Z,16.48
2023-09-02T06:49:05.781Z,16.49
2023-09-02T06:50:05.768Z,16.50
2023-09-02T06:51:05.776Z,16.51
2023-09-02T06:52:05.734Z,16.52
2023-09-02T06:53:05.721Z,16.53
2023-09-02T06:54:05.868Z,16.54
2023-09-02T06:55:05.727Z,16.56
2023-09-02T06:56:05.689Z,16.57
2023-09-02T06:57:05.712Z,16.58
2023-09-02T06:58:05.676Z,16.60
2023-09-02T06:59:05.654Z,16.61
2023-09-02T07:00:05.633Z,16.63
2023-09-02T07:01:05.652Z,16.65
2023-09-02T07:02:05.656Z,16.67
2023-09-02T07:03:05.690Z,16.69
2023-09-02T07:04:05.658Z,16.71
2023-09-02T07:05:05.593Z,16.73
2023-09-02T07:06:05.552Z,16.74
2023-09-02T07:07:05.572Z,16.76
2023-09-02T07:08:05.578Z,16.77
2023-09-02T07:09:05.520Z,16.79
2023-09-02T07:10:07.505Z,16.81
2023-09-02T07:11:05.485Z,16.82
2023-09-02T07:12:05.493Z,16.84
2023-09-02T07:13:05.464Z,16.85
2023-09-02T07:14:05.456Z,16.86
2023-09-02T07:15:05.462Z,16.87
2023-09-02T07:16:05.472Z,16.89
2023-09-02T07:17:05.411Z,16.90
2023-09-02T07:18:06.177Z,16.91
2023-09-02T07:19:05.400Z,16.93
2023-09-02T07:20:05.393Z,16.94
2023-09-02T07:21:05.363Z,16.96
2023-09-02T07:22:05.351Z,16.97
2023-09-02T07:23:05.377Z,16.98
2023-09-02T07:24:05.346Z,16.99
2023-09-02T07:25:05.314Z,17.00
2023-09-02T07:26:05.309Z,17.02
2023-09-02T07:27:05.307Z,17.03
2023-09-02T07:28:05.302Z,17.04
2023-09-02T07:29:05.274Z,17.04
2023-09-02T07:30:05.249Z,17.05
2023-09-02T07:31:05.298Z,17.06
2023-09-02T07:32:05.233Z,17.07
2023-09-02T07:33:05.246Z,17.08
2023-09-02T07:34:05.225Z,17.09
2023-09-02T07:35:05.188Z,17.10
2023-09-02T07:36:05.181Z,17.10
2023-09-02T07:37:05.223Z,17.11
2023-09-02T07:38:05.139Z,17.12
2023-09-02T07:39:05.177Z,17.13
2023-09-02T07:40:05.109Z,17.14
2023-09-02T07:41:05.099Z,17.15
2023-09-02T07:42:05.081Z,17.16
2023-09-02T07:43:05.106Z,17.18
2023-09-02T07:44:05.077Z,17.19
2023-09-02T07:45:05.043Z,17.21
2023-09-02T07:46:05.229Z,17.22
2023-09-02T07:47:05.140Z,17.24
2023-09-02T07:48:05.024Z,17.26
2023-09-02T07:49:05.019Z,17.27
2023-09-02T07:50:04.992Z,17.29
2023-09-02T07:51:04.997Z,17.30
2023-09-02T07:52:04.976Z,17.30
2023-09-02T07:53:04.952Z,17.31
2023-09-02T07:54:04.922Z,17.32
2023-09-02T07:55:04.973Z,17.33
2023-09-02T07:56:04.911Z,17.34
2023-09-02T07:57:04.905Z,17.35
2023-09-02T07:58:04.923Z,17.36
2023-09-02T07:59:04.871Z,17.36
2023-09-02T08:00:04.883Z,17.37
2023-09-02T08:01:04.875Z,17.38
2023-09-02T08:02:04.834Z,17.39
2023-09-02T08:03:04.967Z,17.40
2023-09-02T08:04:05.421Z,17.42
2023-09-02T08:05:04.799Z,17.45
2023-09-02T08:06:04.803Z,17.47
2023-09-02T08:07:04.765Z,17.49
2023-09-02T08:08:04.766Z,17.52
2023-09-02T08:09:04.739Z,17.53
2023-09-02T08:10:04.733Z,17.55
2023-09-02T08:11:04.733Z,17.56
2023-09-02T08:12:04.717Z,17.57
2023-09-02T08:13:04.696Z,17.58
2023-09-02T08:14:04.676Z,17.60
2023-09-02T08:15:04.666Z,17.61
2023-09-02T08:16:04.701Z,17.63
2023-09-02T08:17:04.663Z,17.64
2023-09-02T08:18:04.651Z,17.65
2023-09-02T08:19:04.617Z,17.66
2023-09-02T08:20:04.604Z,17.67
2023-09-02T08:21:04.626Z,17.69
2023-09-02T08:22:04.591Z,17.70
2023-09-02T08:23:04.578Z,17.72
2023-09-02T08:24:04.592Z,17.73
2023-09-02T08:25:04.532Z,17.75
2023-09-02T08:26:04.547Z,17.77
2023-09-02T08:27:04.542Z,17.79
2023-09-02T08:28:04.498Z,17.81
2023-09-02T08:29:04.505Z,17.83
2023-09-02T08:30:04.486Z,17.84
2023-09-02T08:31:04.492Z,17.86
2023-09-02T08:32:04.451Z,17.88
2023-09-02T08:33:04.492Z,17.90
2023-09-02T08:34:04.443Z,17.92
2023-09-02T08:35:04.449Z,17.95
2023-09-02T08:36:04.409Z,17.96
2023-09-02T08:37:04.411Z,17.98
2023-09-02T08:38:04.428Z,18.00
2023-09-02T08:39:04.610Z,18.01
2023-09-02T08:40:04.346Z,18.03
2023-09-02T08:41:04.338Z,18.04
2023-09-02T08:42:04.313Z,18.05
2023-09-02T08:43:04.354Z,18.06
2023-09-02T08:44:04.324Z,18.08
2023-09-02T08:45:04.296Z,18.09
2023-09-02T08:46:04.564Z,18.11
2023-09-02T08:47:04.359Z,18.11
2023-09-02T08:48:04.282Z,18.11
2023-09-02T08:49:04.249Z,18.11
2023-09-02T08:50:04.252Z,18.11
2023-09-02T08:51:04.226Z,18.10
2023-09-02T08:52:04.228Z,18.11
2023-09-02T08:53:04.184Z,18.12
2023-09-02T08:54:04.190Z,18.15
2023-09-02T08:55:04.160Z,18.19
2023-09-02T08:56:04.140Z,18.23
2023-09-02T08:57:04.146Z,18.27
2023-09-02T08:58:04.173Z,18.31
2023-09-02T08:59:04.106Z,18.34
2023-09-02T09:00:04.085Z,18.39
2023-09-02T09:01:04.153Z,18.46
2023-09-02T09:02:04.079Z,18.53
2023-09-02T09:03:04.091Z,18.60
2023-09-02T09:04:04.042Z,18.65
2023-09-02T09:05:04.042Z,18.70
2023-09-02T09:06:04.026Z,18.74
2023-09-02T09:07:04.046Z,18.76
2023-09-02T09:08:04.029Z,18.78
2023-09-02T09:09:03.999Z,18.79
2023-09-02T09:10:04.027Z,18.80
2023-09-02T09:11:03.973Z,18.81
2023-09-02T09:12:03.931Z,18.81
2023-09-02T09:13:03.988Z,18.82
2023-09-02T09:14:03.945Z,18.82
2023-09-02T09:15:03.894Z,18.82
2023-09-02T09:16:03.926Z,18.81
2023-09-02T09:17:03.906Z,18.80
2023-09-02T09:18:03.943Z,18.79
2023-09-02T09:19:03.867Z,18.78
2023-09-02T09:20:03.866Z,18.78
2023-09-02T09:21:03.827Z,18.79
2023-09-02T09:22:03.904Z,18.80
2023-09-02T09:23:03.807Z,18.81
2023-09-02T09:24:03.808Z,18.82
2023-09-02T09:25:03.797Z,18.84
2023-09-02T09:26:03.788Z,18.86
2023-09-02T09:27:03.757Z,18.87
2023-09-02T09:28:03.795Z,18.88
2023-09-02T09:29:03.755Z,18.89
2023-09-02T09:30:03.702Z,18.89
2023-09-02T09:31:03.734Z,18.89
2023-09-02T09:32:03.671Z,18.89
2023-09-02T09:33:03.708Z,18.88
2023-09-02T09:34:03.655Z,18.87
2023-09-02T09:35:03.667Z,18.85
2023-09-02T09:36:03.635Z,18.84
2023-09-02T09:37:03.617Z,18.82
2023-09-02T09:38:03.644Z,18.80
2023-09-02T09:39:03.675Z,18.80
2023-09-02T09:40:03.577Z,18.80
2023-09-02T09:41:03.577Z,18.81
2023-09-02T09:42:03.630Z,18.82
2023-09-02T09:43:03.560Z,18.85
2023-09-02T09:44:03.557Z,18.89
2023-09-02T09:45:03.570Z,18.94
2023-09-02T09:46:03.560Z,18.98
2023-09-02T09:47:03.519Z,19.02
2023-09-02T09:48:03.495Z,19.06
2023-09-02T09:49:03.462Z,19.08
2023-09-02T09:50:03.443Z,19.10
2023-09-02T09:51:03.434Z,19.13
2023-09-02T09:52:03.457Z,19.16
2023-09-02T09:53:03.721Z,19.18
2023-09-02T09:54:03.392Z,19.20
2023-09-02T09:55:03.383Z,19.22
2023-09-02T09:56:03.357Z,19.24
2023-09-02T09:57:03.382Z,19.27
2023-09-02T09:58:03.338Z,19.30
2023-09-02T09:59:03.354Z,19.32
2023-09-02T10:00:03.336Z,19.33
2023-09-02T10:01:03.321Z,19.34
2023-09-02T10:02:03.296Z,19.35
2023-09-02T10:03:03.360Z,19.36
2023-09-02T10:04:03.285Z,19.36
2023-09-02T10:05:03.255Z,19.35
2023-09-02T10:06:03.300Z,19.35
2023-09-02T10:07:03.258Z,19.35
2023-09-02T10:08:03.280Z,19.35
2023-09-02T10:09:03.265Z,19.34
2023-09-02T10:10:03.287Z,19.33
2023-09-02T10:11:03.171Z,19.32
2023-09-02T10:12:03.176Z,19.32
2023-09-02T10:13:03.193Z,19.31
2023-09-02T10:14:03.144Z,19.31
2023-09-02T10:15:03.159Z,19.30
2023-09-02T10:16:09.978Z,19.29
2023-09-02T10:17:04.822Z,19.27
2023-09-02T10:18:03.134Z,19.26
2023-09-02T10:19:03.085Z,19.25
2023-09-02T10:20:03.154Z,19.24
2023-09-02T10:21:03.055Z,19.22
2023-09-02T10:22:03.051Z,19.21
2023-09-02T10:23:03.029Z,19.21
2023-09-02T10:24:03.071Z,19.21
2023-09-02T10:25:03.014Z,19.22
2023-09-02T10:26:03.057Z,19.23
2023-09-02T10:27:02.982Z,19.23
2023-09-02T10:28:02.970Z,19.24
2023-09-02T10:29:02.960Z,19.26
2023-09-02T10:30:02.947Z,19.26
2023-09-02T10:31:02.992Z,19.27
2023-09-02T10:32:02.912Z,19.27
2023-09-02T10:33:02.909Z,19.28
2023-09-02T10:34:02.884Z,19.29
2023-09-02T10:35:02.890Z,19.30
2023-09-02T10:36:03.554Z,19.31
2023-09-02T10:37:02.863Z,19.32
2023-09-02T10:38:03.714Z,19.33
2023-09-02T10:39:02.949Z,19.34
2023-09-02T10:40:02.949Z,19.35
2023-09-02T10:41:02.863Z,19.37
2023-09-02T10:42:02.770Z,19.39
2023-09-02T10:43:02.797Z,19.42
2023-09-02T10:44:02.768Z,19.45
2023-09-02T10:45:02.738Z,19.47
2023-09-02T10:46:02.739Z,19.49
2023-09-02T10:47:02.727Z,19.50
2023-09-02T10:48:02.768Z,19.52
2023-09-02T10:49:02.683Z,19.53
2023-09-02T10:50:02.710Z,19.53
2023-09-02T10:51:02.659Z,19.55
2023-09-02T10:52:05.050Z,19.56
2023-09-02T10:53:13.755Z,19.58
2023-09-02T10:54:05.330Z,19.58
2023-09-02T10:55:02.680Z,19.58
2023-09-02T10:56:03.706Z,19.58
2023-09-02T10:57:02.639Z,19.57
2023-09-02T10:58:03.509Z,19.57
2023-09-02T10:59:02.682Z,19.58
2023-09-02T11:00:02.692Z,19.58
2023-09-02T11:01:02.616Z,19.59
2023-09-02T11:02:02.541Z,19.58
2023-09-02T11:03:02.592Z,19.57
2023-09-02T11:04:02.544Z,19.56
2023-09-02T11:05:02.473Z,19.55
2023-09-02T11:06:02.521Z,19.53
2023-09-02T11:07:02.486Z,19.52
2023-09-02T11:08:02.425Z,19.51
2023-09-02T11:09:02.413Z,19.48
2023-09-02T11:10:02.453Z,19.44
2023-09-02T11:11:02.390Z,19.43
2023-09-02T11:12:02.476Z,19.43
2023-09-02T11:13:02.367Z,19.45
2023-09-02T11:14:02.374Z,19.46
2023-09-02T11:15:02.391Z,19.46
2023-09-02T11:16:02.333Z,19.45
2023-09-02T11:17:02.342Z,19.45
2023-09-02T11:18:02.377Z,19.45
2023-09-02T11:19:02.319Z,19.46
2023-09-02T11:20:02.316Z,19.46
2023-09-02T11:21:02.253Z,19.46
2023-09-02T11:22:02.269Z,19.46
2023-09-02T11:23:02.241Z,19.45
2023-09-02T11:24:02.236Z,19.44
2023-09-02T11:25:02.207Z,19.44
2023-09-02T11:26:02.209Z,19.44
2023-09-02T11:27:02.207Z,19.45
2023-09-02T11:28:02.220Z,19.46
2023-09-02T11:29:02.147Z,19.47
2023-09-02T11:30:02.171Z,19.47
2023-09-02T11:31:02.149Z,19.48
2023-09-02T11:32:02.174Z,19.48
2023-09-02T11:33:02.183Z,19.48
2023-09-02T11:34:02.082Z,19.49
2023-09-02T11:35:02.128Z,19.53
2023-09-02T11:36:02.071Z,19.56
2023-09-02T11:37:02.208Z,19.59
2023-09-02T11:38:02.133Z,19.61
2023-09-02T11:39:02.052Z,19.63
2023-09-02T11:40:02.065Z,19.65
2023-09-02T11:41:02.026Z,19.67
2023-09-02T11:42:07.341Z,19.68
2023-09-02T11:43:02.082Z,19.69
2023-09-02T11:44:02.304Z,19.69
2023-09-02T11:45:02.075Z,19.68
2023-09-02T11:46:01.985Z,19.68
2023-09-02T11:47:01.911Z,19.68
2023-09-02T11:48:01.996Z,19.68
2023-09-02T11:49:01.932Z,19.68
2023-09-02T11:50:01.873Z,19.69
2023-09-02T11:51:01.894Z,19.69
2023-09-02T11:52:01.848Z,19.69
2023-09-02T11:53:01.839Z,19.69
2023-09-02T11:54:01.870Z,19.69
2023-09-02T11:55:04.226Z,19.69
2023-09-02T11:56:02.104Z,19.71
2023-09-02T11:57:08.213Z,19.71
2023-09-02T11:58:03.479Z,19.72
2023-09-02T11:59:04.251Z,19.73
2023-09-02T12:00:03.728Z,19.74
2023-09-02T12:01:02.320Z,19.74
2023-09-02T12:02:05.676Z,19.74
2023-09-02T12:03:05.712Z,19.74
2023-09-02T12:04:03.552Z,19.74
2023-09-02T12:05:04.528Z,19.75
2023-09-02T12:06:03.166Z,19.76
2023-09-02T12:07:02.029Z,19.76
2023-09-02T12:08:05.030Z,19.76
2023-09-02T12:09:05.527Z,19.76
2023-09-02T12:10:05.956Z,19.76
2023-09-02T12:11:05.818Z,19.77
2023-09-02T12:12:01.684Z,19.78
2023-09-02T12:13:01.646Z,19.79
2023-09-02T12:14:01.679Z,19.80
2023-09-02T12:15:02.952Z,19.80
2023-09-02T12:16:01.736Z,19.80
2023-09-02T12:17:01.618Z,19.80
2023-09-02T12:18:03.606Z,19.81
2023-09-02T12:19:01.576Z,19.83
2023-09-02T12:20:01.599Z,19.84
2023-09-02T12:21:01.524Z,19.85
2023-09-02T12:22:02.551Z,19.85
2023-09-02T12:23:01.468Z,19.86
2023-09-02T12:24:02.620Z,19.88
2023-09-02T12:25:01.492Z,19.91
2023-09-02T12:26:02.483Z,19.94
2023-09-02T12:27:04.331Z,19.96
2023-09-02T12:28:01.607Z,19.97
2023-09-02T12:29:17.610Z,19.99
2023-09-02T12:30:03.361Z,20.00
2023-09-02T12:31:04.388Z,20.02
2023-09-02T12:32:04.957Z,20.06
2023-09-02T12:33:05.193Z,20.10
2023-09-02T12:34:08.972Z,20.14
2023-09-02T12:35:03.526Z,20.18
2023-09-02T12:36:01.401Z,20.21
2023-09-02T12:37:01.336Z,20.24
2023-09-02T12:38:03.352Z,20.28
2023-09-02T12:39:15.918Z,20.31
2023-09-02T12:40:01.456Z,20.35
2023-09-02T12:41:01.220Z,20.38
2023-09-02T12:42:27.907Z,20.41
2023-09-02T12:43:06.898Z,20.43
2023-09-02T12:44:01.210Z,20.45
2023-09-02T12:45:03.566Z,20.47
2023-09-02T12:46:01.150Z,20.50
2023-09-02T12:47:05.940Z,20.51
2023-09-02T12:48:25.816Z,20.53
2023-09-02T12:49:01.149Z,20.55
2023-09-02T12:50:04.240Z,20.57
2023-09-02T12:51:01.564Z,20.59
2023-09-02T12:52:02.016Z,20.61